sensor_id;sensor_type;location;lat;lon;timestamp;P1;durP1;ratioP1;P2;durP2;ratioP2
38037;SDS011;23843;51.320;12.340;2023-02-01T05:30:21;8.23;;;2.80;;
38037;SDS011;23843;51.320;12.340;2023-02-01T05:32:48;6.90;;;2.83;;
38037;SDS011;23843;51.320;12.340;2023-02-01T05:35:14;7.87;;;2.47;;
38037;SDS011;23843;51.320;12.340;2023-02-01T05:37:40;6.27;;;2.23;;
38037;SDS011;23843;51.320;12.340;2023-02-01T05:40:06;6.60;;;2.30;;
38037;SDS011;23843;51.320;12.340;2023-02-01T05:42:32;5.93;;;2.60;;
38037;SDS011;23843;51.320;12.340;2023-02-01T05:45:03;6.50;;;2.20;;
38037;SDS011;23843;51.320;12.340;2023-02-01T05:47:31;8.13;;;2.23;;
38037;SDS011;23843;51.320;12.340;2023-02-01T05:49:59;8.33;;;2.80;;
38037;SDS011;23843;51.320;12.340;2023-02-01T05:52:25;6.50;;;2.60;;
38037;SDS011;23843;51.320;12.340;2023-02-01T05:54:53;7.40;;;2.57;;
38037;SDS011;23843;51.320;12.340;2023-02-01T05:57:21;5.63;;;2.40;;
38037;SDS011;23843;51.320;12.340;2023-02-01T05:59:50;8.67;;;2.80;;
38037;SDS011;23843;51.320;12.340;2023-02-01T06:02:25;8.43;;;2.57;;
38037;SDS011;23843;51.320;12.340;2023-02-01T06:04:59;8.33;;;2.17;;
38037;SDS011;23843;51.320;12.340;2023-02-01T06:07:44;7.87;;;2.50;;
38037;SDS011;23843;51.320;12.340;2023-02-01T06:10:35;7.40;;;2.40;;
38037;SDS011;23843;51.320;12.340;2023-02-01T06:13:12;7.60;;;2.37;;
38037;SDS011;23843;51.320;12.340;2023-02-01T06:16:00;9.40;;;2.43;;
38037;SDS011;23843;51.320;12.340;2023-02-01T06:18:50;4.93;;;2.17;;
38037;SDS011;23843;51.320;12.340;2023-02-01T06:24:17;8.70;;;2.43;;
38037;SDS011;23843;51.320;12.340;2023-02-01T06:27:02;9.83;;;2.90;;
38037;SDS011;23843;51.320;12.340;2023-02-01T06:29:48;9.50;;;2.57;;
38037;SDS011;23843;51.320;12.340;2023-02-01T06:32:36;8.17;;;2.83;;
38037;SDS011;23843;51.320;12.340;2023-02-01T06:35:22;10.30;;;2.93;;
38037;SDS011;23843;51.320;12.340;2023-02-01T06:40:36;7.77;;;2.40;;
38037;SDS011;23843;51.320;12.340;2023-02-01T06:43:37;7.27;;;2.50;;
38037;SDS011;23843;51.320;12.340;2023-02-01T06:46:09;8.07;;;2.33;;
38037;SDS011;23843;51.320;12.340;2023-02-01T06:48:39;9.20;;;2.80;;
38037;SDS011;23843;51.320;12.340;2023-02-01T06:51:04;7.57;;;2.50;;
38037;SDS011;23843;51.320;12.340;2023-02-01T06:53:32;7.73;;;2.63;;
38037;SDS011;23843;51.320;12.340;2023-02-01T06:55:58;6.83;;;2.47;;
38037;SDS011;23843;51.320;12.340;2023-02-01T06:58:27;5.93;;;2.27;;
38037;SDS011;23843;51.320;12.340;2023-02-01T07:00:53;5.70;;;2.30;;
38037;SDS011;23843;51.320;12.340;2023-02-01T07:03:19;9.40;;;2.93;;
38037;SDS011;23843;51.320;12.340;2023-02-01T07:05:44;5.93;;;2.43;;
38037;SDS011;23843;51.320;12.340;2023-02-01T07:08:10;8.20;;;2.90;;
38037;SDS011;23843;51.320;12.340;2023-02-01T07:10:37;9.77;;;2.73;;
38037;SDS011;23843;51.320;12.340;2023-02-01T07:13:02;9.73;;;2.97;;
38037;SDS011;23843;51.320;12.340;2023-02-01T07:15:28;6.80;;;2.70;;
38037;SDS011;23843;51.320;12.340;2023-02-01T07:17:54;9.33;;;2.93;;
38037;SDS011;23843;51.320;12.340;2023-02-01T07:20:19;11.97;;;3.37;;
38037;SDS011;23843;51.320;12.340;2023-02-01T07:22:45;10.30;;;3.37;;
38037;SDS011;23843;51.320;12.340;2023-02-01T07:25:10;7.10;;;2.93;;
38037;SDS011;23843;51.320;12.340;2023-02-01T07:27:37;8.67;;;2.77;;
38037;SDS011;23843;51.320;12.340;2023-02-01T07:30:03;10.83;;;3.47;;
38037;SDS011;23843;51.320;12.340;2023-02-01T07:32:30;7.33;;;3.17;;
38037;SDS011;23843;51.320;12.340;2023-02-01T07:34:56;12.10;;;2.90;;
38037;SDS011;23843;51.320;12.340;2023-02-01T07:37:21;13.80;;;3.27;;
38037;SDS011;23843;51.320;12.340;2023-02-01T07:39:47;8.90;;;2.80;;
38037;SDS011;23843;51.320;12.340;2023-02-01T07:42:12;9.57;;;2.43;;
38037;SDS011;23843;51.320;12.340;2023-02-01T07:44:39;7.20;;;3.37;;
38037;SDS011;23843;51.320;12.340;2023-02-01T07:47:04;16.27;;;4.57;;
38037;SDS011;23843;51.320;12.340;2023-02-01T07:49:30;12.37;;;3.37;;
38037;SDS011;23843;51.320;12.340;2023-02-01T07:51:55;12.67;;;3.40;;
38037;SDS011;23843;51.320;12.340;2023-02-01T07:54:21;9.87;;;3.00;;
38037;SDS011;23843;51.320;12.340;2023-02-01T07:56:46;9.50;;;3.00;;
38037;SDS011;23843;51.320;12.340;2023-02-01T07:59:11;8.23;;;3.60;;
38037;SDS011;23843;51.320;12.340;2023-02-01T08:01:38;10.00;;;3.43;;
38037;SDS011;23843;51.320;12.340;2023-02-01T08:04:04;6.97;;;2.70;;
38037;SDS011;23843;51.320;12.340;2023-02-01T08:06:30;9.33;;;2.57;;
38037;SDS011;23843;51.320;12.340;2023-02-01T08:08:57;10.67;;;2.50;;
38037;SDS011;23843;51.320;12.340;2023-02-01T08:11:23;6.77;;;2.40;;
38037;SDS011;23843;51.320;12.340;2023-02-01T08:13:49;11.17;;;2.97;;
38037;SDS011;23843;51.320;12.340;2023-02-01T08:16:16;11.93;;;3.30;;
38037;SDS011;23843;51.320;12.340;2023-02-01T08:18:44;14.03;;;3.27;;
38037;SDS011;23843;51.320;12.340;2023-02-01T08:21:11;11.53;;;3.20;;
38037;SDS011;23843;51.320;12.340;2023-02-01T08:23:38;10.87;;;3.10;;
38037;SDS011;23843;51.320;12.340;2023-02-01T08:26:05;6.60;;;2.60;;
38037;SDS011;23843;51.320;12.340;2023-02-01T08:28:35;9.37;;;2.60;;
38037;SDS011;23843;51.320;12.340;2023-02-01T08:31:03;10.13;;;2.80;;
38037;SDS011;23843;51.320;12.340;2023-02-01T08:33:30;6.73;;;2.90;;
38037;SDS011;23843;51.320;12.340;2023-02-01T08:35:56;8.63;;;2.40;;
38037;SDS011;23843;51.320;12.340;2023-02-01T08:38:22;7.27;;;2.40;;
38037;SDS011;23843;51.320;12.340;2023-02-01T08:40:47;7.20;;;2.50;;
38037;SDS011;23843;51.320;12.340;2023-02-01T08:43:13;5.87;;;2.17;;
38037;SDS011;23843;51.320;12.340;2023-02-01T08:45:39;8.20;;;2.40;;
38037;SDS011;23843;51.320;12.340;2023-02-01T08:48:05;4.93;;;2.20;;
38037;SDS011;23843;51.320;12.340;2023-02-01T08:50:30;6.23;;;2.20;;
38037;SDS011;23843;51.320;12.340;2023-02-01T08:52:57;5.70;;;2.20;;
38037;SDS011;23843;51.320;12.340;2023-02-01T08:55:23;4.13;;;1.73;;
38037;SDS011;23843;51.320;12.340;2023-02-01T08:57:48;7.23;;;2.70;;
38037;SDS011;23843;51.320;12.340;2023-02-01T09:00:14;6.70;;;2.30;;
38037;SDS011;23843;51.320;12.340;2023-02-01T09:02:41;7.27;;;2.67;;
38037;SDS011;23843;51.320;12.340;2023-02-01T09:05:07;7.10;;;2.10;;
38037;SDS011;23843;51.320;12.340;2023-02-01T09:07:33;10.17;;;2.40;;
38037;SDS011;23843;51.320;12.340;2023-02-01T09:10:01;8.83;;;2.50;;
38037;SDS011;23843;51.320;12.340;2023-02-01T09:12:27;4.97;;;2.10;;
38037;SDS011;23843;51.320;12.340;2023-02-01T09:14:53;9.53;;;3.20;;
38037;SDS011;23843;51.320;12.340;2023-02-01T09:17:18;7.50;;;2.37;;
38037;SDS011;23843;51.320;12.340;2023-02-01T09:19:44;7.87;;;2.50;;
38037;SDS011;23843;51.320;12.340;2023-02-01T09:22:09;6.57;;;2.57;;
38037;SDS011;23843;51.320;12.340;2023-02-01T09:24:35;9.13;;;2.80;;
38037;SDS011;23843;51.320;12.340;2023-02-01T09:27:02;8.33;;;3.07;;
38037;SDS011;23843;51.320;12.340;2023-02-01T09:29:27;8.17;;;2.70;;
38037;SDS011;23843;51.320;12.340;2023-02-01T09:31:53;6.57;;;2.57;;
38037;SDS011;23843;51.320;12.340;2023-02-01T09:34:19;6.83;;;2.50;;
38037;SDS011;23843;51.320;12.340;2023-02-01T09:36:44;10.67;;;3.00;;
38037;SDS011;23843;51.320;12.340;2023-02-01T09:39:09;8.07;;;2.60;;
38037;SDS011;23843;51.320;12.340;2023-02-01T09:41:38;13.80;;;3.67;;
38037;SDS011;23843;51.320;12.340;2023-02-01T09:44:15;6.70;;;2.53;;
38037;SDS011;23843;51.320;12.340;2023-02-01T09:46:53;9.77;;;3.20;;
38037;SDS011;23843;51.320;12.340;2023-02-01T09:49:22;8.43;;;2.87;;
38037;SDS011;23843;51.320;12.340;2023-02-01T09:51:52;9.00;;;3.00;;
38037;SDS011;23843;51.320;12.340;2023-02-01T09:54:22;10.00;;;3.53;;
38037;SDS011;23843;51.320;12.340;2023-02-01T09:56:49;8.13;;;3.23;;
38037;SDS011;23843;51.320;12.340;2023-02-01T09:59:23;8.07;;;2.53;;
38037;SDS011;23843;51.320;12.340;2023-02-01T10:01:57;7.03;;;2.70;;
38037;SDS011;23843;51.320;12.340;2023-02-01T10:04:23;9.60;;;3.30;;
38037;SDS011;23843;51.320;12.340;2023-02-01T10:06:52;11.67;;;4.10;;
38037;SDS011;23843;51.320;12.340;2023-02-01T10:09:31;10.27;;;3.30;;
38037;SDS011;23843;51.320;12.340;2023-02-01T10:18:19;7.00;;;2.50;;
38037;SDS011;23843;51.320;12.340;2023-02-01T10:21:00;9.50;;;2.43;;
38037;SDS011;23843;51.320;12.340;2023-02-01T10:23:56;9.50;;;3.10;;
38037;SDS011;23843;51.320;12.340;2023-02-01T10:26:35;11.33;;;2.90;;
38037;SDS011;23843;51.320;12.340;2023-02-01T10:29:04;6.63;;;2.30;;
38037;SDS011;23843;51.320;12.340;2023-02-01T10:31:41;10.73;;;3.07;;
38037;SDS011;23843;51.320;12.340;2023-02-01T10:34:09;7.73;;;2.87;;
38037;SDS011;23843;51.320;12.340;2023-02-01T10:36:49;11.73;;;3.17;;
38037;SDS011;23843;51.320;12.340;2023-02-01T10:39:18;8.57;;;2.80;;
38037;SDS011;23843;51.320;12.340;2023-02-01T10:41:43;6.93;;;2.70;;
38037;SDS011;23843;51.320;12.340;2023-02-01T10:44:10;9.20;;;2.90;;
38037;SDS011;23843;51.320;12.340;2023-02-01T10:46:40;8.40;;;2.63;;
38037;SDS011;23843;51.320;12.340;2023-02-01T10:49:08;9.60;;;2.50;;
38037;SDS011;23843;51.320;12.340;2023-02-01T10:51:42;7.57;;;2.40;;
38037;SDS011;23843;51.320;12.340;2023-02-01T10:54:11;8.93;;;2.57;;
38037;SDS011;23843;51.320;12.340;2023-02-01T10:56:41;7.73;;;2.47;;
38037;SDS011;23843;51.320;12.340;2023-02-01T10:59:13;6.80;;;2.47;;
38037;SDS011;23843;51.320;12.340;2023-02-01T11:01:42;7.90;;;2.60;;
38037;SDS011;23843;51.320;12.340;2023-02-01T11:04:09;8.27;;;2.50;;
38037;SDS011;23843;51.320;12.340;2023-02-01T11:06:37;7.73;;;2.53;;
38037;SDS011;23843;51.320;12.340;2023-02-01T11:09:10;9.87;;;2.80;;
38037;SDS011;23843;51.320;12.340;2023-02-01T11:11:52;6.60;;;2.33;;
38037;SDS011;23843;51.320;12.340;2023-02-01T11:14:20;5.43;;;2.13;;
38037;SDS011;23843;51.320;12.340;2023-02-01T11:16:54;6.50;;;2.00;;
38037;SDS011;23843;51.320;12.340;2023-02-01T11:19:22;6.33;;;2.40;;
38037;SDS011;23843;51.320;12.340;2023-02-01T11:21:48;4.23;;;1.60;;
38037;SDS011;23843;51.320;12.340;2023-02-01T11:24:17;5.47;;;1.90;;
38037;SDS011;23843;51.320;12.340;2023-02-01T11:26:47;4.57;;;1.80;;
38037;SDS011;23843;51.320;12.340;2023-02-01T11:29:13;5.50;;;1.90;;
38037;SDS011;23843;51.320;12.340;2023-02-01T11:31:42;4.70;;;1.67;;
38037;SDS011;23843;51.320;12.340;2023-02-01T11:34:10;4.73;;;1.53;;
38037;SDS011;23843;51.320;12.340;2023-02-01T11:36:39;6.33;;;2.00;;
38037;SDS011;23843;51.320;12.340;2023-02-01T11:39:18;5.43;;;1.70;;
38037;SDS011;23843;51.320;12.340;2023-02-01T11:41:55;5.63;;;2.10;;
38037;SDS011;23843;51.320;12.340;2023-02-01T11:44:26;7.43;;;2.13;;
38037;SDS011;23843;51.320;12.340;2023-02-01T11:46:56;6.20;;;2.00;;
38037;SDS011;23843;51.320;12.340;2023-02-01T11:49:44;10.10;;;2.33;;
38037;SDS011;23843;51.320;12.340;2023-02-01T11:52:12;5.77;;;1.80;;
38037;SDS011;23843;51.320;12.340;2023-02-01T11:54:50;6.67;;;2.47;;
38037;SDS011;23843;51.320;12.340;2023-02-01T12:03:11;4.97;;;2.00;;
38037;SDS011;23843;51.320;12.340;2023-02-01T12:06:09;5.90;;;2.33;;
38037;SDS011;23843;51.320;12.340;2023-02-01T12:08:48;7.07;;;2.53;;
38037;SDS011;23843;51.320;12.340;2023-02-01T12:11:38;7.47;;;2.27;;
38037;SDS011;23843;51.320;12.340;2023-02-01T12:14:18;5.03;;;2.10;;
38037;SDS011;23843;51.320;12.340;2023-02-01T12:16:58;6.63;;;2.10;;
38037;SDS011;23843;51.320;12.340;2023-02-01T12:19:40;9.50;;;2.47;;
38037;SDS011;23843;51.320;12.340;2023-02-01T12:22:23;6.47;;;2.17;;
38037;SDS011;23843;51.320;12.340;2023-02-01T12:25:08;7.47;;;2.43;;
38037;SDS011;23843;51.320;12.340;2023-02-01T12:27:50;8.50;;;2.57;;
38037;SDS011;23843;51.320;12.340;2023-02-01T12:30:39;9.10;;;2.80;;
38037;SDS011;23843;51.320;12.340;2023-02-01T12:33:16;7.53;;;2.37;;
38037;SDS011;23843;51.320;12.340;2023-02-01T12:38:44;9.00;;;2.53;;
38037;SDS011;23843;51.320;12.340;2023-02-01T12:41:26;5.00;;;1.97;;
38037;SDS011;23843;51.320;12.340;2023-02-01T12:44:10;5.90;;;2.23;;
38037;SDS011;23843;51.320;12.340;2023-02-01T12:46:43;6.27;;;2.00;;
38037;SDS011;23843;51.320;12.340;2023-02-01T12:49:14;8.50;;;1.87;;
38037;SDS011;23843;51.320;12.340;2023-02-01T12:51:43;6.07;;;1.90;;
38037;SDS011;23843;51.320;12.340;2023-02-01T12:54:13;4.37;;;1.60;;
38037;SDS011;23843;51.320;12.340;2023-02-01T12:56:44;8.77;;;2.43;;
38037;SDS011;23843;51.320;12.340;2023-02-01T12:59:16;4.63;;;1.53;;
38037;SDS011;23843;51.320;12.340;2023-02-01T13:01:49;4.67;;;1.63;;
38037;SDS011;23843;51.320;12.340;2023-02-01T13:04:20;3.80;;;1.53;;
38037;SDS011;23843;51.320;12.340;2023-02-01T13:06:52;5.67;;;1.67;;
38037;SDS011;23843;51.320;12.340;2023-02-01T13:09:25;4.30;;;1.60;;
38037;SDS011;23843;51.320;12.340;2023-02-01T13:11:55;6.30;;;1.77;;
38037;SDS011;23843;51.320;12.340;2023-02-01T13:14:27;5.73;;;1.83;;
38037;SDS011;23843;51.320;12.340;2023-02-01T13:17:04;5.47;;;2.03;;
38037;SDS011;23843;51.320;12.340;2023-02-01T13:19:40;6.33;;;2.33;;
38037;SDS011;23843;51.320;12.340;2023-02-01T13:22:10;7.17;;;2.47;;
38037;SDS011;23843;51.320;12.340;2023-02-01T13:24:41;6.43;;;2.03;;
38037;SDS011;23843;51.320;12.340;2023-02-01T13:27:10;7.33;;;2.40;;
38037;SDS011;23843;51.320;12.340;2023-02-01T13:29:37;9.67;;;2.27;;
38037;SDS011;23843;51.320;12.340;2023-02-01T13:32:17;6.20;;;2.37;;
38037;SDS011;23843;51.320;12.340;2023-02-01T13:35:23;9.60;;;3.53;;
38037;SDS011;23843;51.320;12.340;2023-02-01T13:38:09;7.17;;;2.13;;
38037;SDS011;23843;51.320;12.340;2023-02-01T13:40:51;3.90;;;1.60;;
38037;SDS011;23843;51.320;12.340;2023-02-01T13:43:34;5.67;;;1.80;;
38037;SDS011;23843;51.320;12.340;2023-02-01T13:46:02;7.30;;;2.10;;
38037;SDS011;23843;51.320;12.340;2023-02-01T13:48:33;7.43;;;1.83;;
38037;SDS011;23843;51.320;12.340;2023-02-01T13:51:03;7.33;;;2.30;;
38037;SDS011;23843;51.320;12.340;2023-02-01T13:53:30;5.23;;;1.73;;
38037;SDS011;23843;51.320;12.340;2023-02-01T13:56:00;6.13;;;2.00;;
38037;SDS011;23843;51.320;12.340;2023-02-01T13:58:31;9.23;;;2.70;;
38037;SDS011;23843;51.320;12.340;2023-02-01T14:03:59;5.60;;;2.03;;
38037;SDS011;23843;51.320;12.340;2023-02-01T14:06:41;8.73;;;2.60;;
38037;SDS011;23843;51.320;12.340;2023-02-01T14:09:13;7.17;;;2.83;;
38037;SDS011;23843;51.320;12.340;2023-02-01T14:11:45;7.10;;;2.40;;
38037;SDS011;23843;51.320;12.340;2023-02-01T14:23:11;6.33;;;3.03;;
38037;SDS011;23843;51.320;12.340;2023-02-01T14:25:39;8.10;;;2.40;;
38037;SDS011;23843;51.320;12.340;2023-02-01T14:28:11;8.63;;;2.57;;
38037;SDS011;23843;51.320;12.340;2023-02-01T14:30:44;9.23;;;2.80;;
38037;SDS011;23843;51.320;12.340;2023-02-01T14:33:17;6.70;;;2.40;;
38037;SDS011;23843;51.320;12.340;2023-02-01T14:35:53;9.73;;;2.50;;
38037;SDS011;23843;51.320;12.340;2023-02-01T14:38:27;8.17;;;3.07;;
38037;SDS011;23843;51.320;12.340;2023-02-01T14:40:53;11.80;;;3.63;;
38037;SDS011;23843;51.320;12.340;2023-02-01T14:46:16;6.17;;;2.90;;
38037;SDS011;23843;51.320;12.340;2023-02-01T14:48:43;8.40;;;2.80;;
38037;SDS011;23843;51.320;12.340;2023-02-01T14:51:11;6.77;;;2.43;;
38037;SDS011;23843;51.320;12.340;2023-02-01T14:53:40;6.87;;;2.63;;
38037;SDS011;23843;51.320;12.340;2023-02-01T14:56:07;7.40;;;2.67;;
38037;SDS011;23843;51.320;12.340;2023-02-01T14:58:39;10.27;;;2.90;;
38037;SDS011;23843;51.320;12.340;2023-02-01T15:01:15;9.37;;;2.93;;
38037;SDS011;23843;51.320;12.340;2023-02-01T15:03:44;7.80;;;2.70;;
38037;SDS011;23843;51.320;12.340;2023-02-01T15:06:20;8.27;;;3.03;;
38037;SDS011;23843;51.320;12.340;2023-02-01T15:08:55;10.40;;;3.43;;
38037;SDS011;23843;51.320;12.340;2023-02-01T15:11:23;7.37;;;2.30;;
38037;SDS011;23843;51.320;12.340;2023-02-01T15:13:49;6.50;;;2.43;;
38037;SDS011;23843;51.320;12.340;2023-02-01T15:16:31;7.90;;;2.50;;
38037;SDS011;23843;51.320;12.340;2023-02-01T15:19:06;8.83;;;2.90;;
38037;SDS011;23843;51.320;12.340;2023-02-01T15:21:43;5.80;;;2.37;;
38037;SDS011;23843;51.320;12.340;2023-02-01T15:24:10;8.20;;;3.00;;
38037;SDS011;23843;51.320;12.340;2023-02-01T15:26:36;9.33;;;3.10;;
38037;SDS011;23843;51.320;12.340;2023-02-01T15:29:01;7.60;;;2.40;;
38037;SDS011;23843;51.320;12.340;2023-02-01T15:31:32;6.27;;;2.37;;
38037;SDS011;23843;51.320;12.340;2023-02-01T15:33:59;5.93;;;2.30;;
38037;SDS011;23843;51.320;12.340;2023-02-01T15:36:25;6.97;;;2.50;;
38037;SDS011;23843;51.320;12.340;2023-02-01T15:41:39;6.97;;;2.40;;
38037;SDS011;23843;51.320;12.340;2023-02-01T15:44:11;8.77;;;2.90;;
38037;SDS011;23843;51.320;12.340;2023-02-01T15:46:45;9.70;;;2.90;;
38037;SDS011;23843;51.320;12.340;2023-02-01T15:49:17;9.13;;;2.93;;
38037;SDS011;23843;51.320;12.340;2023-02-01T15:51:46;5.97;;;2.90;;
38037;SDS011;23843;51.320;12.340;2023-02-01T15:54:20;8.63;;;2.73;;
38037;SDS011;23843;51.320;12.340;2023-02-01T15:56:50;6.77;;;2.50;;
38037;SDS011;23843;51.320;12.340;2023-02-01T15:59:18;6.80;;;2.30;;
38037;SDS011;23843;51.320;12.340;2023-02-01T16:01:48;6.97;;;2.47;;
38037;SDS011;23843;51.320;12.340;2023-02-01T16:04:16;4.87;;;2.40;;
38037;SDS011;23843;51.320;12.340;2023-02-01T16:06:47;10.77;;;2.90;;
38037;SDS011;23843;51.320;12.340;2023-02-01T16:09:15;3.27;;;1.20;;
38037;SDS011;23843;51.320;12.340;2023-02-01T16:11:47;2.63;;;1.00;;
38037;SDS011;23843;51.320;12.340;2023-02-01T16:14:17;1.47;;;0.70;;
38037;SDS011;23843;51.320;12.340;2023-02-01T16:16:43;0.70;;;0.70;;
38037;SDS011;23843;51.320;12.340;2023-02-01T16:19:10;0.73;;;0.50;;
38037;SDS011;23843;51.320;12.340;2023-02-01T16:21:35;2.40;;;0.90;;
38037;SDS011;23843;51.320;12.340;2023-02-01T16:24:07;0.97;;;0.80;;
38037;SDS011;23843;51.320;12.340;2023-02-01T16:26:33;2.07;;;1.10;;
38037;SDS011;23843;51.320;12.340;2023-02-01T16:28:59;2.30;;;1.17;;
38037;SDS011;23843;51.320;12.340;2023-02-01T16:31:25;2.47;;;1.40;;
38037;SDS011;23843;51.320;12.340;2023-02-01T16:33:59;1.60;;;0.93;;
38037;SDS011;23843;51.320;12.340;2023-02-01T16:36:26;1.60;;;0.80;;
38037;SDS011;23843;51.320;12.340;2023-02-01T16:38:52;1.53;;;0.73;;
38037;SDS011;23843;51.320;12.340;2023-02-01T16:41:18;1.60;;;0.70;;
38037;SDS011;23843;51.320;12.340;2023-02-01T16:43:45;0.60;;;0.50;;
38037;SDS011;23843;51.320;12.340;2023-02-01T16:46:14;2.00;;;1.10;;
38037;SDS011;23843;51.320;12.340;2023-02-01T16:48:44;0.80;;;0.70;;
38037;SDS011;23843;51.320;12.340;2023-02-01T16:51:15;1.90;;;0.90;;
38037;SDS011;23843;51.320;12.340;2023-02-01T16:53:43;1.63;;;1.10;;
38037;SDS011;23843;51.320;12.340;2023-02-01T16:56:11;1.00;;;0.70;;
38037;SDS011;23843;51.320;12.340;2023-02-01T16:58:38;1.17;;;0.63;;
38037;SDS011;23843;51.320;12.340;2023-02-01T17:01:04;1.50;;;0.80;;
38037;SDS011;23843;51.320;12.340;2023-02-01T17:03:29;1.63;;;0.70;;
38037;SDS011;23843;51.320;12.340;2023-02-01T17:05:55;0.60;;;0.50;;
38037;SDS011;23843;51.320;12.340;2023-02-01T17:08:30;2.40;;;0.80;;
38037;SDS011;23843;51.320;12.340;2023-02-01T17:10:59;3.60;;;1.10;;
38037;SDS011;23843;51.320;12.340;2023-02-01T17:13:24;1.87;;;0.80;;
38037;SDS011;23843;51.320;12.340;2023-02-01T17:15:51;2.57;;;1.13;;
38037;SDS011;23843;51.320;12.340;2023-02-01T17:18:19;2.57;;;1.00;;
38037;SDS011;23843;51.320;12.340;2023-02-01T17:20:45;2.53;;;1.10;;
38037;SDS011;23843;51.320;12.340;2023-02-01T17:23:10;1.73;;;1.10;;
38037;SDS011;23843;51.320;12.340;2023-02-01T17:25:36;2.20;;;1.57;;
38037;SDS011;23843;51.320;12.340;2023-02-01T17:28:03;2.47;;;1.20;;
38037;SDS011;23843;51.320;12.340;2023-02-01T17:30:29;1.83;;;1.00;;
38037;SDS011;23843;51.320;12.340;2023-02-01T17:32:55;3.07;;;1.00;;
38037;SDS011;23843;51.320;12.340;2023-02-01T17:35:22;1.70;;;1.00;;
38037;SDS011;23843;51.320;12.340;2023-02-01T17:37:49;2.77;;;1.20;;
38037;SDS011;23843;51.320;12.340;2023-02-01T17:40:16;1.83;;;0.97;;
38037;SDS011;23843;51.320;12.340;2023-02-01T17:42:41;2.20;;;0.97;;
38037;SDS011;23843;51.320;12.340;2023-02-01T17:45:18;2.17;;;1.10;;
38037;SDS011;23843;51.320;12.340;2023-02-01T17:47:48;1.30;;;0.90;;
38037;SDS011;23843;51.320;12.340;2023-02-01T17:50:13;1.13;;;0.80;;
38037;SDS011;23843;51.320;12.340;2023-02-01T17:52:39;2.33;;;0.80;;
38037;SDS011;23843;51.320;12.340;2023-02-01T17:55:08;2.13;;;1.00;;
38037;SDS011;23843;51.320;12.340;2023-02-01T17:57:41;2.80;;;1.00;;
38037;SDS011;23843;51.320;12.340;2023-02-01T18:00:07;2.10;;;1.27;;
38037;SDS011;23843;51.320;12.340;2023-02-01T18:02:35;1.13;;;0.80;;
38037;SDS011;23843;51.320;12.340;2023-02-01T18:05:00;2.80;;;1.57;;
38037;SDS011;23843;51.320;12.340;2023-02-01T18:07:26;2.97;;;1.37;;
38037;SDS011;23843;51.320;12.340;2023-02-01T18:09:51;2.30;;;1.30;;
38037;SDS011;23843;51.320;12.340;2023-02-01T18:12:17;1.67;;;0.97;;
38037;SDS011;23843;51.320;12.340;2023-02-01T18:14:45;1.63;;;1.10;;
38037;SDS011;23843;51.320;12.340;2023-02-01T18:17:11;1.97;;;1.20;;
38037;SDS011;23843;51.320;12.340;2023-02-01T18:19:38;2.73;;;1.80;;
38037;SDS011;23843;51.320;12.340;2023-02-01T18:22:03;3.23;;;1.50;;
38037;SDS011;23843;51.320;12.340;2023-02-01T18:24:29;2.17;;;1.40;;
38037;SDS011;23843;51.320;12.340;2023-02-01T18:27:08;1.80;;;1.20;;
38037;SDS011;23843;51.320;12.340;2023-02-01T18:29:34;4.87;;;2.83;;
38037;SDS011;23843;51.320;12.340;2023-02-01T18:32:00;3.50;;;2.30;;
38037;SDS011;23843;51.320;12.340;2023-02-01T18:34:26;3.60;;;2.20;;
38037;SDS011;23843;51.320;12.340;2023-02-01T18:36:53;2.73;;;1.73;;
38037;SDS011;23843;51.320;12.340;2023-02-01T18:39:18;2.80;;;1.80;;
38037;SDS011;23843;51.320;12.340;2023-02-01T18:41:44;3.33;;;2.13;;
38037;SDS011;23843;51.320;12.340;2023-02-01T18:44:12;4.47;;;2.70;;
38037;SDS011;23843;51.320;12.340;2023-02-01T18:46:38;3.90;;;2.27;;
38037;SDS011;23843;51.320;12.340;2023-02-01T18:49:06;5.40;;;2.23;;
38037;SDS011;23843;51.320;12.340;2023-02-01T18:51:32;2.80;;;1.87;;
38037;SDS011;23843;51.320;12.340;2023-02-01T18:53:59;3.63;;;1.90;;
38037;SDS011;23843;51.320;12.340;2023-02-01T18:56:24;2.70;;;1.70;;
38037;SDS011;23843;51.320;12.340;2023-02-01T18:58:50;2.90;;;1.80;;
38037;SDS011;23843;51.320;12.340;2023-02-01T19:01:16;3.07;;;1.80;;
38037;SDS011;23843;51.320;12.340;2023-02-01T19:03:42;3.40;;;1.50;;
38037;SDS011;23843;51.320;12.340;2023-02-01T19:06:08;3.70;;;1.40;;
38037;SDS011;23843;51.320;12.340;2023-02-01T19:08:34;2.07;;;1.00;;
38037;SDS011;23843;51.320;12.340;2023-02-01T19:11:06;4.30;;;1.70;;
38037;SDS011;23843;51.320;12.340;2023-02-01T19:13:32;3.07;;;1.30;;
38037;SDS011;23843;51.320;12.340;2023-02-01T19:15:57;2.50;;;1.37;;
38037;SDS011;23843;51.320;12.340;2023-02-01T19:18:23;3.37;;;1.30;;
38037;SDS011;23843;51.320;12.340;2023-02-01T19:20:48;2.13;;;1.40;;
38037;SDS011;23843;51.320;12.340;2023-02-01T19:23:14;2.77;;;1.13;;
38037;SDS011;23843;51.320;12.340;2023-02-01T19:25:41;2.53;;;1.10;;
38037;SDS011;23843;51.320;12.340;2023-02-01T19:28:09;4.23;;;1.30;;
38037;SDS011;23843;51.320;12.340;2023-02-01T19:30:35;2.00;;;1.10;;
38037;SDS011;23843;51.320;12.340;2023-02-01T19:33:00;2.73;;;1.10;;
38037;SDS011;23843;51.320;12.340;2023-02-01T19:35:26;1.23;;;0.80;;
38037;SDS011;23843;51.320;12.340;2023-02-01T19:37:51;2.40;;;0.93;;
38037;SDS011;23843;51.320;12.340;2023-02-01T19:40:17;2.57;;;0.70;;
38037;SDS011;23843;51.320;12.340;2023-02-01T19:42:44;1.17;;;0.70;;
38037;SDS011;23843;51.320;12.340;2023-02-01T19:45:14;1.63;;;0.90;;
38037;SDS011;23843;51.320;12.340;2023-02-01T19:47:40;1.50;;;0.70;;
38037;SDS011;23843;51.320;12.340;2023-02-01T19:50:06;4.27;;;1.00;;
38037;SDS011;23843;51.320;12.340;2023-02-01T19:52:32;1.97;;;0.80;;
38037;SDS011;23843;51.320;12.340;2023-02-01T19:54:58;0.70;;;0.60;;
38037;SDS011;23843;51.320;12.340;2023-02-01T19:57:24;1.30;;;0.60;;
38037;SDS011;23843;51.320;12.340;2023-02-01T19:59:49;3.03;;;1.50;;
38037;SDS011;23843;51.320;12.340;2023-02-01T20:02:19;2.10;;;1.10;;
38037;SDS011;23843;51.320;12.340;2023-02-01T20:04:44;3.53;;;1.47;;
38037;SDS011;23843;51.320;12.340;2023-02-01T20:07:10;4.27;;;2.20;;
38037;SDS011;23843;51.320;12.340;2023-02-01T20:09:36;10.70;;;4.80;;
38037;SDS011;23843;51.320;12.340;2023-02-01T20:12:03;7.03;;;3.07;;
38037;SDS011;23843;51.320;12.340;2023-02-01T20:14:28;4.33;;;1.90;;
38037;SDS011;23843;51.320;12.340;2023-02-01T20:16:54;3.63;;;1.30;;
38037;SDS011;23843;51.320;12.340;2023-02-01T20:19:21;4.67;;;2.53;;
38037;SDS011;23843;51.320;12.340;2023-02-01T20:21:48;6.00;;;3.43;;
38037;SDS011;23843;51.320;12.340;2023-02-01T20:24:15;3.97;;;2.07;;
38037;SDS011;23843;51.320;12.340;2023-02-01T20:26:41;2.87;;;1.60;;
38037;SDS011;23843;51.320;12.340;2023-02-01T20:29:07;3.90;;;1.80;;
38037;SDS011;23843;51.320;12.340;2023-02-01T20:31:33;3.13;;;1.60;;
38037;SDS011;23843;51.320;12.340;2023-02-01T20:33:59;2.83;;;1.20;;
38037;SDS011;23843;51.320;12.340;2023-02-01T20:36:27;2.77;;;1.40;;
38037;SDS011;23843;51.320;12.340;2023-02-01T20:38:54;2.60;;;1.27;;
38037;SDS011;23843;51.320;12.340;2023-02-01T20:41:20;1.97;;;1.00;;
38037;SDS011;23843;51.320;12.340;2023-02-01T20:43:46;2.50;;;1.30;;
38037;SDS011;23843;51.320;12.340;2023-02-01T20:46:12;1.60;;;0.90;;
38037;SDS011;23843;51.320;12.340;2023-02-01T20:48:40;3.20;;;1.60;;
38037;SDS011;23843;51.320;12.340;2023-02-01T20:51:07;3.23;;;1.20;;
38037;SDS011;23843;51.320;12.340;2023-02-01T20:53:37;2.57;;;1.10;;
38037;SDS011;23843;51.320;12.340;2023-02-01T20:56:06;3.23;;;1.70;;